Terminal Aerodrome Forecast
Issued by NWS Pueblo, CO

Home | Current Version | Previous Version | Text Only | Print | Product List | Glossary On
Versions: 1 2 3 4 5 6 7 8 9 10 11 12 13 14 15
000
FTUS45 KPUB 202321
TAFALS
TAF
KALS 202321Z 2100/2124 22015G27KT P6SM SKC
     FM210200 19012G22KT P6SM SCT230
     FM211400 30012KT P6SM FEW050 SCT180
     FM212100 33010KT P6SM SCT050 SCT180=

USA.gov is the U.S. government's official web portal to all federal, state and local government web resources and services.